Summer Hill, Illinois
Current Conditions -  °F | °C
As of 6:15 PM on Sunday 25 Jan 2015 (Local Time) from KPPQ Reporting Station
Overcast Overcast  
Wind Chill: 22°   Ceiling: 1300
Heat Index: 32°   Visibility: 10mi
Dew Point: 28°   Wind: 14mph
Humidity: 86%   Direction: 350°N
Pressure: 29.95"   Gusts: 23mph
Location:  39.5728°N, 90.8034°W
Report Text: KPPQ 260015Z AUTO 35012G20KT 10SM OVC013 00/M02 A2995 RMK AO2 T00001021
Loading
Personal Weather Stations






























Interactive Weather Map New forecast layout! Learn more

10-Day Weather Forecast

Advertisements
Track Severe Weather on mobile